Archival Weather

Chicago O'Hare International

Chicago, Illinois (KORD)

Report from: Wednesday, September 6, 2023 4:41 PM CDT
Current time: Wednesday, May 29, 2024 7:08 PM CDT

Current weather – Weather history – Daily summaries
Weather forecast

Temperature23.9°C (75.0°F)
Dew point17.8°C (64.0°F)
Winds 16 kts (8.2 m/s, 18.4 mph) West-Southwest (250°)
Wind gusts 23 kts (11.8 m/s, 26.5 mph)
Visibility10 mi. (16.1 km)
Clouds Few clouds 2,000 ft. (610 m)
Ceiling: Broken clouds 2,900 ft. (884 m)
Broken clouds 5,000 ft. (1,524 m)
Altimeter29.78 in.Hg (1008 mB)
Relative humidity69 %
Density altitude1,473 ft. (449 m)
Remarks Automated weather observing station with precipitation discriminator
Flight conditions Marginal Visual Meteorological Conditions
Raw dataKORD 062141Z 25016G23KT 10SM FEW020 BKN029 BKN050 24/18 A2978 RMK AO2 T02390178
An error has occurred. This application may no longer respond until reloaded. Reload 🗙